createdAt,value
2022-11-01T00:04:27.338Z,455.35
2022-11-01T00:10:00.384Z,455.52
2022-11-01T00:15:32.540Z,455.17
2022-11-01T00:21:04.121Z,455.17
2022-11-01T00:26:35.703Z,454.83
2022-11-01T00:32:07.379Z,455.00
2022-11-01T00:37:39.175Z,455.17
2022-11-01T00:48:40.441Z,455.78
2022-11-01T00:54:12.692Z,455.78
2022-11-01T00:59:44.638Z,455.78
2022-11-01T01:05:16.495Z,456.13
2022-11-01T01:10:48.362Z,456.48
2022-11-01T01:16:19.969Z,456.65
2022-11-01T01:21:51.904Z,456.65
2022-11-01T01:32:53.173Z,457.35
2022-11-01T01:38:25.041Z,457.17
2022-11-01T01:43:56.635Z,457.52
2022-11-01T01:49:28.669Z,457.87
2022-11-01T01:55:00.506Z,458.39
2022-11-01T02:00:32.415Z,458.57
2022-11-01T02:06:04.229Z,458.57
2022-11-01T02:11:36.320Z,458.92
2022-11-01T02:17:09.607Z,458.92
2022-11-01T02:22:40.105Z,458.74
2022-11-01T02:28:11.897Z,458.74
2022-11-01T02:33:43.800Z,458.39
2022-11-01T02:44:47.119Z,457.70
2022-11-01T02:50:19.017Z,457.52
2022-11-01T02:55:50.798Z,457.17
2022-11-01T03:01:24.082Z,457.17
2022-11-01T03:06:55.746Z,456.48
2022-11-01T03:17:59.686Z,455.17
2022-11-01T03:23:31.602Z,455.35
2022-11-01T03:34:35.497Z,454.83
2022-11-01T03:40:07.025Z,454.65
2022-11-01T03:45:39.040Z,454.48
2022-11-01T03:51:10.929Z,454.48
2022-11-01T03:56:42.541Z,454.13
2022-11-01T04:02:14.833Z,453.78
2022-11-01T04:07:46.830Z,453.61
2022-11-01T04:13:18.875Z,452.74
2022-11-01T04:18:50.982Z,451.69
2022-11-01T04:24:22.965Z,451.69
2022-11-01T04:29:54.904Z,450.91
2022-11-01T04:35:27.091Z,450.22
2022-11-01T04:40:59.411Z,449.52
2022-11-01T04:46:31.473Z,449.35
2022-11-01T04:52:03.532Z,449.69
2022-11-01T04:57:35.629Z,448.65
2022-11-01T05:03:07.302Z,448.30
2022-11-01T05:08:39.149Z,448.30
2022-11-01T05:14:11.492Z,448.48
2022-11-01T05:19:43.590Z,448.13
2022-11-01T05:25:15.382Z,447.61
2022-11-01T05:30:47.056Z,447.26
2022-11-01T05:36:18.854Z,446.83
2022-11-01T05:41:50.492Z,446.48
2022-11-01T05:47:22.295Z,446.13
2022-11-01T05:52:54.240Z,445.26
2022-11-01T05:55:06.425Z,444.22
2022-11-01T06:00:38.781Z,443.70
2022-11-01T06:06:10.647Z,443.35
2022-11-01T06:11:42.270Z,442.91
2022-11-01T06:17:14.949Z,442.05
2022-11-01T06:22:46.913Z,441.00
2022-11-01T06:28:18.637Z,439.61
2022-11-01T06:33:50.587Z,437.79
2022-11-01T06:39:22.289Z,436.92
2022-11-01T06:44:54.218Z,436.57
2022-11-01T06:50:26.090Z,435.71
2022-11-01T06:55:57.891Z,435.01
2022-11-01T07:01:29.636Z,433.97
2022-11-01T07:07:01.334Z,432.67
2022-11-01T07:12:33.057Z,432.15
2022-11-01T07:18:05.046Z,431.28
2022-11-01T07:23:36.535Z,430.58
2022-11-01T07:29:08.271Z,430.06
2022-11-01T07:34:40.222Z,429.11
2022-11-01T07:40:11.951Z,428.59
2022-11-01T07:45:43.850Z,428.07
2022-11-01T07:51:15.476Z,427.37
2022-11-01T07:56:47.209Z,427.37
2022-11-01T08:02:19.164Z,427.20
2022-11-01T08:07:50.717Z,427.20
2022-11-01T08:13:22.488Z,427.37
2022-11-01T08:15:45.708Z,428.24
2022-11-01T08:21:17.223Z,428.41
2022-11-01T08:26:49.308Z,428.41
2022-11-01T08:32:20.925Z,428.24
2022-11-01T08:37:52.698Z,427.89
2022-11-01T08:43:24.833Z,427.72
2022-11-01T08:48:56.888Z,427.55
2022-11-01T09:00:00.923Z,427.20
2022-11-01T09:05:32.875Z,427.20
2022-11-01T09:11:04.598Z,426.68
2022-11-01T09:16:36.345Z,426.85
2022-11-01T09:22:08.066Z,426.85
2022-11-01T09:27:39.867Z,427.03
2022-11-01T09:33:11.612Z,427.37
2022-11-01T09:44:14.747Z,428.24
2022-11-01T09:49:46.615Z,428.76
2022-11-01T10:00:49.902Z,429.37
2022-11-01T10:06:21.240Z,429.28
2022-11-01T10:11:53.107Z,428.93
2022-11-01T10:17:24.870Z,428.41
2022-11-01T10:22:56.691Z,427.55
2022-11-01T10:28:28.432Z,427.20
2022-11-01T10:33:59.941Z,426.85
2022-11-01T10:50:34.570Z,427.03
2022-11-01T10:56:06.257Z,427.37
2022-11-01T11:01:38.244Z,427.20
2022-11-01T11:07:09.692Z,427.72
2022-11-01T11:12:50.098Z,427.89
2022-11-01T11:34:56.859Z,428.07
2022-11-01T11:40:28.523Z,428.24
2022-11-01T11:46:00.427Z,428.59
2022-11-01T11:51:32.023Z,428.76
2022-11-01T11:57:03.831Z,428.41
2022-11-01T12:02:35.146Z,428.41
2022-11-01T12:13:39.617Z,428.07
2022-11-01T12:19:12.945Z,428.24
2022-11-01T12:24:44.281Z,428.24
2022-11-01T12:30:15.968Z,428.07
2022-11-01T12:35:47.459Z,428.24
2022-11-01T12:46:48.269Z,428.41
2022-11-01T12:52:19.577Z,428.24
2022-11-01T13:03:20.539Z,428.41
2022-11-01T13:08:52.402Z,428.41
2022-11-01T13:14:24.224Z,428.76
2022-11-01T13:19:56.155Z,428.76
2022-11-01T13:25:28.051Z,428.41
2022-11-01T13:30:59.962Z,428.76
2022-11-01T13:36:31.859Z,428.59
2022-11-01T13:42:03.902Z,428.41
2022-11-01T13:47:36.065Z,428.41
2022-11-01T13:53:08.116Z,428.24
2022-11-01T13:58:39.727Z,428.07
2022-11-01T14:04:11.458Z,428.24
2022-11-01T14:09:43.500Z,427.89
2022-11-01T14:15:15.855Z,427.89
2022-11-01T14:20:47.996Z,427.72
2022-11-01T14:26:20.387Z,427.89
2022-11-01T14:31:52.875Z,427.72
2022-11-01T14:37:24.788Z,428.07
2022-11-01T14:42:56.931Z,427.72
2022-11-01T14:48:29.013Z,427.37
2022-11-01T14:54:01.148Z,427.37
2022-11-01T14:59:33.515Z,427.20
2022-11-01T15:05:05.697Z,427.37
2022-11-01T15:10:37.765Z,427.37
2022-11-01T15:16:09.980Z,427.03
2022-11-01T15:21:46.634Z,427.03
2022-11-01T15:27:14.439Z,426.85
2022-11-01T15:32:46.554Z,426.33
2022-11-01T15:38:20.975Z,425.81
2022-11-01T15:43:50.047Z,425.81
2022-11-01T15:49:21.979Z,425.46
2022-11-01T15:54:53.995Z,425.29
2022-11-01T16:00:26.460Z,425.12
2022-11-01T16:05:59.751Z,425.12
2022-11-01T16:11:29.903Z,424.68
2022-11-01T16:17:01.811Z,424.51
2022-11-01T16:22:33.602Z,424.16
2022-11-01T16:28:05.370Z,423.82
2022-11-01T16:33:36.927Z,423.12
2022-11-01T16:39:08.789Z,422.95
2022-11-01T16:44:40.377Z,422.08
2022-11-01T16:50:12.497Z,421.39
2022-11-01T16:55:44.701Z,420.78
2022-11-01T17:01:16.521Z,419.91
2022-11-01T17:06:48.250Z,419.05
2022-11-01T17:12:20.423Z,419.05
2022-11-01T17:17:52.541Z,418.53
2022-11-01T17:23:24.196Z,418.01
2022-11-01T17:28:56.023Z,417.66
2022-11-01T17:34:27.796Z,417.31
2022-11-01T17:39:59.965Z,416.79
2022-11-01T17:45:31.903Z,416.79
2022-11-01T17:51:03.462Z,415.75
2022-11-01T17:56:35.490Z,415.58
2022-11-01T18:02:07.972Z,415.58
2022-11-01T18:07:40.086Z,415.49
2022-11-01T18:13:11.692Z,415.58
2022-11-01T18:18:44.963Z,415.32
2022-11-01T18:24:22.025Z,415.15
2022-11-01T18:29:48.395Z,415.15
2022-11-01T18:35:20.261Z,414.80
2022-11-01T18:40:52.001Z,414.63
2022-11-01T18:46:25.878Z,414.97
2022-11-01T18:51:55.930Z,414.45
2022-11-01T18:57:27.792Z,414.45
2022-11-01T19:02:59.799Z,414.28
2022-11-01T19:08:31.799Z,414.11
2022-11-01T19:14:03.557Z,414.28
2022-11-01T19:19:35.336Z,414.45
2022-11-01T19:25:07.116Z,414.45
2022-11-01T19:30:39.048Z,414.80
2022-11-01T19:36:10.772Z,415.15
2022-11-01T19:41:42.579Z,415.49
2022-11-01T19:47:16.122Z,415.58
2022-11-01T19:52:47.660Z,415.15
2022-11-01T20:03:48.016Z,414.45
2022-11-01T20:09:19.914Z,414.28
2022-11-01T20:14:51.425Z,414.11
2022-11-01T20:20:23.256Z,413.41
2022-11-01T20:25:54.969Z,412.89
2022-11-01T20:31:26.924Z,412.55
2022-11-01T20:37:28.788Z,412.55
2022-11-01T20:42:30.667Z,412.03
2022-11-01T20:48:02.206Z,411.85
2022-11-01T20:53:33.897Z,411.33
2022-11-01T20:59:05.930Z,411.33
2022-11-01T21:04:37.926Z,411.16
2022-11-01T21:10:10.116Z,410.99
2022-11-01T21:15:41.854Z,410.99
2022-11-01T21:21:13.651Z,410.73
2022-11-01T21:26:45.641Z,410.38
2022-11-01T21:28:57.008Z,410.21
2022-11-01T21:40:04.273Z,410.04
2022-11-01T21:45:30.141Z,410.38
2022-11-01T21:49:51.448Z,410.82
2022-11-01T21:55:23.159Z,411.16
2022-11-01T22:00:54.910Z,411.33
2022-11-01T22:06:26.752Z,411.33
2022-11-01T22:11:58.780Z,411.33
2022-11-01T22:17:30.447Z,411.16
2022-11-01T22:23:02.487Z,411.33
2022-11-01T22:28:34.179Z,411.68
2022-11-01T22:34:06.249Z,411.85
2022-11-01T22:39:38.154Z,411.85
2022-11-01T22:45:09.998Z,411.68
2022-11-01T22:50:41.819Z,411.68
2022-11-01T22:56:13.543Z,411.51
2022-11-01T23:01:45.488Z,411.51
